ADDS TAF Board (Experimental) INFO Settings
IDs: Format: Expanded Condensed

KSTL - St Louis/Lambert Int, MO, US

Issued at 2027 UTC 25 Sep 2016
Updated at 2049 UTC 25 Sep 2016
Time1951Z 25/21Z 25/22Z 25/23Z 26/00Z 26/01Z 26/02Z 26/03Z 26/04Z 26/05Z 26/06Z 26/07Z 26/08Z 26/09Z
Type OBS PRVL
  [TEMP]  
PRVL PRVL PRVL PRVL PRVL PRVL PRVL PRVL PRVL PRVL PRVL PRVL
VIS 10 >6
  [3]  
>6 >6 6 6 6 6 6 >6 >6 >6 >6 >6
CIG 200 120
  [35]  
120 120 50 50 50 50 50 40 40 40 40 40
Cover BKN BKN
  [BKN]  
BKN BKN BKN BKN BKN BKN BKN BKN BKN BKN BKN BKN
FltCat VFR VFR
  [MVFR]  
VFR VFR VFR VFR VFR VFR VFR VFR VFR VFR VFR VFR
WX -- VCTS
  [SHRA]  
VCTS VCTS -SHRA VCTS -SHRA VCTS -SHRA VCTS -SHRA VCTS -SHRA VCTS VCSH VCSH VCSH VCSH VCSH
WDir 260 250
[250]
250 250 280 280 280 280 280 310 310 310 310 310
WSpd 8 10
  [10]  
10 10 10 10 10 10 10 9 9 9 9 9
WGst -- 20
  [20]  
20 20 -- -- -- -- -- -- -- -- -- --
R06/24
XWnd 2 1 1 1 6 6 6 6 6 8 8 8 8 8
XGst -- 2 2 2 -- -- -- -- -- -- -- -- -- --
HWnd -8 -10 -10 -10 -8 -8 -8 -8 -8 -4 -4 -4 -4 -4
HGst -- -20 -20 -20 -- -- -- -- -- -- -- -- -- --
R11/29
XWnd -5 -8 -8 -8 -4 -4 -4 -4 -4 1 1 1 1 1
XGst -- -16 -16 -16 -- -- -- -- -- -- -- -- -- --
HWnd -6 -6 -6 -6 -9 -9 -9 -9 -9 -9 -9 -9 -9 -9
HGst -- -12 -12 -12 -- -- -- -- -- -- -- -- -- --
R12/30
XWnd -5 -8 -8 -8 -4 -4 -4 -4 -4 1 1 1 1 1
XGst -- -16 -16 -16 -- -- -- -- -- -- -- -- -- --
HWnd -6 -6 -6 -6 -9 -9 -9 -9 -9 -9 -9 -9 -9 -9
HGst -- -12 -12 -12 -- -- -- -- -- -- -- -- -- --

Raw TAF
KSTL 252027Z 2520/2624 25010G20KT P6SM VCTS SCT050CB BKN120
  TEMPO 2520/2522 3SM SHRA BKN035
  FM260000 28010KT 6SM -SHRA VCTS BKN050CB
  FM260500 31009KT P6SM VCSH BKN040
  FM261200 29007KT P6SM SCT040 BKN120
  FM261600 30011KT P6SM SKC


Raw METAR
KSTL 251951Z 26008KT 10SM SCT048 BKN200 32/19 A3001 RMK AO2 SLP150 TCU DSNT NE-E AND DSNT NW T03220189 $
KSTL 251851Z 26010KT 10SM SCT060 SCT100 BKN250 32/18 A3003 RMK AO2 SLP156 TCU DSNT W-N T03220183 $
KSTL 251751Z 23008G18KT 10SM SCT060 BKN200 32/19 A3005 RMK AO2 SLP162 T03220194 10328 20233 58004 $

METAR Board
Radar Display
Forecast Discussion

TAF Board Legend

Potential Impact
Threat None Slight Moderate High
Visibility (sm) ≥5.1 5.1>X≥3 3>X≥1 <1
Ceiling (100 ft) ≥30.1 30.1>X≥10 10>X≥5 <5
Wind Speed (kt) <10 10≤X<20 20≤X<30 ≥30
Wind Gust (kt) <15 15≤X<25 25≤X<35 ≥35
Weather No Wx Reported VCTS,-TS,-FZRA,SN TS,FZRA +TS,+FZRA,+SN